createdAt,value
2024-05-09T00:02:54.664Z,4.97
2024-05-09T00:05:56.871Z,4.38
2024-05-09T00:08:59.059Z,3.70
2024-05-09T00:12:01.355Z,4.45
2024-05-09T00:15:04.597Z,4.30
2024-05-09T00:18:07.602Z,3.67
2024-05-09T00:21:10.435Z,3.70
2024-05-09T00:24:12.631Z,3.60
2024-05-09T00:27:14.760Z,4.20
2024-05-09T00:30:24.366Z,3.70
2024-05-09T00:33:33.741Z,3.63
2024-05-09T00:36:35.967Z,3.40
2024-05-09T00:39:38.131Z,3.25
2024-05-09T00:42:40.440Z,3.30
2024-05-09T00:45:42.977Z,2.90
2024-05-09T00:48:45.416Z,3.30
2024-05-09T00:51:48.092Z,3.38
2024-05-09T00:54:50.217Z,3.35
2024-05-09T00:57:52.562Z,3.30
2024-05-09T01:00:55.782Z,3.20
2024-05-09T01:03:58.102Z,3.17
2024-05-09T01:07:00.476Z,3.22
2024-05-09T01:10:03.226Z,3.20
2024-05-09T01:13:07.258Z,3.40
2024-05-09T01:16:09.694Z,3.20
2024-05-09T01:19:16.576Z,2.67
2024-05-09T01:22:19.196Z,2.78
2024-05-09T01:25:21.348Z,2.90
2024-05-09T01:28:23.454Z,3.10
2024-05-09T01:31:25.608Z,3.07
2024-05-09T01:34:27.780Z,3.50
2024-05-09T01:37:29.891Z,4.10
2024-05-09T01:40:37.642Z,3.20
2024-05-09T01:43:42.034Z,3.13
2024-05-09T01:46:44.234Z,3.50
2024-05-09T01:49:46.503Z,3.60
2024-05-09T01:52:48.673Z,3.42
2024-05-09T01:55:50.833Z,3.55
2024-05-09T01:58:52.989Z,3.60
2024-05-09T02:01:57.458Z,3.50
2024-05-09T02:05:00.333Z,3.17
2024-05-09T02:08:02.695Z,3.78
2024-05-09T02:11:05.134Z,3.50
2024-05-09T02:14:07.380Z,3.53
2024-05-09T02:17:09.600Z,3.70
2024-05-09T02:20:18.817Z,3.30
2024-05-09T02:23:29.351Z,3.20
2024-05-09T02:26:31.563Z,3.40
2024-05-09T02:29:34.535Z,3.10
2024-05-09T02:32:36.861Z,3.03
2024-05-09T02:35:40.464Z,2.53
2024-05-09T02:38:42.658Z,2.75
2024-05-09T02:41:44.782Z,2.90
2024-05-09T02:44:46.903Z,2.50
2024-05-09T02:47:49.257Z,3.10
2024-05-09T02:50:52.150Z,3.43
2024-05-09T02:53:54.514Z,3.38
2024-05-09T02:56:56.654Z,3.13
2024-05-09T02:59:58.783Z,3.30
2024-05-09T03:03:01.180Z,3.53
2024-05-09T03:06:03.535Z,3.37
2024-05-09T03:09:07.355Z,4.30
2024-05-09T03:12:09.966Z,4.10
2024-05-09T03:15:12.203Z,4.15
2024-05-09T03:18:15.360Z,3.77
2024-05-09T03:21:17.717Z,3.63
2024-05-09T03:24:19.895Z,4.38
2024-05-09T03:27:24.808Z,4.38
2024-05-09T03:30:38.734Z,4.38
2024-05-09T03:33:44.513Z,3.90
2024-05-09T03:36:46.741Z,4.90
2024-05-09T03:39:49.006Z,4.80
2024-05-09T03:42:51.148Z,4.55
2024-05-09T03:45:53.403Z,4.20
2024-05-09T03:48:55.754Z,4.50
2024-05-09T03:51:58.012Z,3.43
2024-05-09T03:55:00.746Z,2.92
2024-05-09T03:58:02.905Z,2.90
2024-05-09T04:01:05.542Z,3.38
2024-05-09T04:04:09.086Z,2.77
2024-05-09T04:07:11.413Z,3.77
2024-05-09T04:10:21.208Z,2.55
2024-05-09T04:13:30.100Z,3.00
2024-05-09T04:16:32.267Z,2.90
2024-05-09T04:19:34.603Z,3.30
2024-05-09T04:22:36.812Z,4.10
2024-05-09T04:25:42.094Z,4.00
2024-05-09T04:28:44.259Z,4.20
2024-05-09T04:31:46.487Z,4.60
2024-05-09T04:34:48.684Z,4.37
2024-05-09T04:37:50.841Z,5.13
2024-05-09T04:40:53.113Z,4.30
2024-05-09T04:43:55.594Z,4.68
2024-05-09T04:46:57.950Z,3.60
2024-05-09T04:50:00.216Z,3.67
2024-05-09T04:53:02.540Z,3.13
2024-05-09T04:56:04.963Z,2.63
2024-05-09T04:59:07.140Z,3.15
2024-05-09T05:02:09.665Z,3.05
2024-05-09T05:05:12.251Z,3.20
2024-05-09T05:08:15.235Z,2.93
2024-05-09T05:11:17.810Z,2.85
2024-05-09T05:14:20.050Z,3.25
2024-05-09T05:17:22.256Z,2.97
2024-05-09T05:20:31.138Z,3.20
2024-05-09T05:23:36.019Z,3.40
2024-05-09T05:26:39.094Z,3.20
2024-05-09T05:29:41.374Z,3.78
2024-05-09T05:32:43.694Z,2.83
2024-05-09T05:35:45.890Z,3.50
2024-05-09T05:38:48.130Z,3.33
2024-05-09T05:41:50.325Z,3.15
2024-05-09T05:44:55.679Z,3.25
2024-05-09T05:47:58.044Z,3.38
2024-05-09T05:51:05.942Z,3.37
2024-05-09T05:54:10.993Z,3.10
2024-05-09T05:57:13.777Z,3.42
2024-05-09T06:00:25.963Z,3.10
2024-05-09T06:03:33.590Z,3.60
2024-05-09T06:06:36.547Z,3.07
2024-05-09T06:09:38.811Z,3.20
2024-05-09T06:12:42.090Z,3.13
2024-05-09T06:15:45.394Z,3.33
2024-05-09T06:18:47.999Z,2.80
2024-05-09T06:21:50.525Z,3.50
2024-05-09T06:24:53.130Z,2.90
2024-05-09T06:27:55.533Z,2.85
2024-05-09T06:30:58.095Z,3.33
2024-05-09T06:34:00.888Z,3.70
2024-05-09T06:37:04.056Z,2.80
2024-05-09T06:40:07.614Z,2.60
2024-05-09T06:43:12.860Z,3.10
2024-05-09T06:46:15.252Z,2.40
2024-05-09T06:49:17.834Z,3.10
2024-05-09T06:52:20.185Z,4.03
2024-05-09T06:55:22.376Z,3.30
2024-05-09T06:58:24.593Z,3.60
2024-05-09T07:01:27.458Z,2.92
2024-05-09T07:04:29.904Z,3.22
2024-05-09T07:07:32.192Z,2.80
2024-05-09T07:10:36.242Z,2.53
2024-05-09T07:13:39.438Z,3.17
2024-05-09T07:16:41.722Z,2.80
2024-05-09T07:19:44.687Z,3.03
2024-05-09T07:22:49.595Z,3.00
2024-05-09T07:25:51.987Z,3.57
2024-05-09T07:28:54.703Z,2.50
2024-05-09T07:31:56.967Z,2.58
2024-05-09T07:34:59.266Z,2.80
2024-05-09T07:38:01.560Z,2.80
2024-05-09T07:41:04.162Z,2.23
2024-05-09T07:44:06.398Z,2.20
2024-05-09T07:48:14.669Z,2.60
2024-05-09T07:53:42.758Z,2.70
2024-05-09T07:56:48.447Z,2.80
2024-05-09T07:59:51.516Z,3.17
2024-05-09T08:02:55.147Z,2.90
2024-05-09T08:05:57.973Z,2.40
2024-05-09T08:09:05.443Z,2.57
2024-05-09T08:12:13.210Z,3.40
2024-05-09T08:15:15.395Z,1.98
2024-05-09T08:18:17.797Z,2.33
2024-05-09T08:21:20.726Z,2.45
2024-05-09T08:24:23.283Z,2.40
2024-05-09T08:27:27.285Z,2.10
2024-05-09T08:30:35.832Z,2.47
2024-05-09T08:33:57.935Z,2.20
2024-05-09T08:37:09.811Z,2.10
2024-05-09T08:40:23.703Z,2.10
2024-05-09T08:43:32.754Z,2.40
2024-05-09T08:46:35.077Z,2.17
2024-05-09T08:49:40.780Z,2.20
2024-05-09T08:52:47.711Z,2.10
2024-05-09T08:55:51.378Z,2.37
2024-05-09T08:58:56.339Z,2.10
2024-05-09T09:01:59.103Z,1.75
2024-05-09T09:05:16.431Z,2.22
2024-05-09T09:08:18.721Z,2.35
2024-05-09T09:11:24.520Z,2.23
2024-05-09T09:14:26.984Z,2.33
2024-05-09T09:17:29.188Z,2.05
2024-05-09T09:20:36.436Z,1.85
2024-05-09T09:23:41.529Z,1.75
2024-05-09T09:26:45.268Z,1.40
2024-05-09T09:29:48.401Z,1.80
2024-05-09T09:32:51.866Z,1.95
2024-05-09T09:35:54.697Z,1.83
2024-05-09T09:38:57.219Z,1.77
2024-05-09T09:42:00.092Z,2.00
2024-05-09T09:45:05.375Z,3.83
2024-05-09T09:48:08.991Z,2.42
2024-05-09T09:51:11.574Z,1.85
2024-05-09T09:54:13.772Z,1.65
2024-05-09T09:57:16.410Z,1.83
2024-05-09T10:00:24.669Z,1.70
2024-05-09T10:03:33.038Z,1.60
2024-05-09T10:06:37.657Z,1.73
2024-05-09T10:09:39.879Z,2.13
2024-05-09T10:12:51.856Z,1.60
2024-05-09T10:15:54.698Z,1.70
2024-05-09T10:18:57.284Z,1.60
2024-05-09T10:22:03.380Z,1.85
2024-05-09T10:25:06.674Z,2.00
2024-05-09T10:28:11.707Z,1.77
2024-05-09T10:31:15.593Z,1.73
2024-05-09T10:34:21.391Z,1.90
2024-05-09T10:37:24.423Z,2.03
2024-05-09T10:40:31.222Z,2.00
2024-05-09T10:43:34.147Z,2.03
2024-05-09T10:46:37.612Z,3.10
2024-05-09T10:49:40.027Z,1.90
2024-05-09T10:52:42.253Z,2.53
2024-05-09T10:55:57.646Z,2.08
2024-05-09T10:58:59.798Z,2.03
2024-05-09T11:02:03.060Z,2.13
2024-05-09T11:05:05.778Z,1.90
2024-05-09T11:08:08.943Z,2.10
2024-05-09T11:11:11.495Z,2.10
2024-05-09T11:14:13.831Z,2.50
2024-05-09T11:17:16.052Z,2.57
2024-05-09T11:20:26.443Z,2.15
2024-05-09T11:23:31.699Z,2.22
2024-05-09T11:26:34.139Z,1.80
2024-05-09T11:29:39.911Z,1.80
2024-05-09T11:32:42.778Z,6.13
2024-05-09T11:35:46.132Z,2.05
2024-05-09T11:38:48.887Z,1.90
2024-05-09T11:41:51.042Z,1.75
2024-05-09T11:44:53.180Z,1.70
2024-05-09T11:47:55.571Z,1.50
2024-05-09T11:50:57.910Z,2.10
2024-05-09T11:54:00.079Z,1.48
2024-05-09T11:57:02.279Z,1.83
2024-05-09T12:00:07.188Z,1.97
2024-05-09T12:03:09.618Z,1.60
2024-05-09T12:06:12.166Z,1.70
2024-05-09T12:09:14.433Z,1.65
2024-05-09T12:12:16.622Z,1.70
2024-05-09T12:15:18.832Z,1.93
2024-05-09T12:18:21.015Z,1.70
2024-05-09T12:21:23.222Z,1.67
2024-05-09T12:24:25.426Z,1.77
2024-05-09T12:27:27.609Z,1.60
2024-05-09T12:30:36.408Z,1.50
2024-05-09T12:33:41.677Z,1.30
2024-05-09T12:36:43.914Z,1.60
2024-05-09T12:39:46.257Z,2.22
2024-05-09T12:42:49.670Z,1.58
2024-05-09T12:45:51.911Z,1.50
2024-05-09T12:48:56.498Z,1.80
2024-05-09T12:51:58.943Z,1.60
2024-05-09T12:55:01.303Z,1.95
2024-05-09T12:58:03.605Z,1.50
2024-05-09T13:01:06.050Z,1.47
2024-05-09T13:04:08.444Z,1.50
2024-05-09T13:07:10.865Z,1.50
2024-05-09T13:10:19.770Z,1.63
2024-05-09T13:13:25.308Z,1.33
2024-05-09T13:16:27.573Z,1.40
2024-05-09T13:19:29.812Z,1.60
2024-05-09T13:22:32.175Z,1.40
2024-05-09T13:25:35.010Z,1.30
2024-05-09T13:28:37.484Z,1.40
2024-05-09T13:31:39.622Z,1.30
2024-05-09T13:34:41.836Z,1.13
2024-05-09T13:37:44.064Z,1.50
2024-05-09T13:40:46.452Z,1.50
2024-05-09T13:43:48.787Z,1.40
2024-05-09T13:46:51.013Z,1.40
2024-05-09T13:49:53.506Z,1.70
2024-05-09T13:52:55.788Z,1.50
2024-05-09T13:55:58.311Z,1.30
2024-05-09T13:59:00.621Z,1.38
2024-05-09T14:02:03.164Z,1.70
2024-05-09T14:05:05.756Z,1.80
2024-05-09T14:08:08.706Z,1.30
2024-05-09T14:11:10.932Z,1.30
2024-05-09T14:14:13.231Z,1.70
2024-05-09T14:17:15.529Z,1.40
2024-05-09T14:20:28.164Z,1.47
2024-05-09T14:23:33.782Z,1.50
2024-05-09T14:26:36.043Z,1.40
2024-05-09T14:29:38.249Z,1.80
2024-05-09T14:32:40.456Z,1.40
2024-05-09T14:35:42.686Z,1.53
2024-05-09T14:38:44.893Z,1.33
2024-05-09T14:41:47.189Z,1.50
2024-05-09T14:44:49.450Z,1.48
2024-05-09T14:47:51.789Z,1.53
2024-05-09T14:50:54.010Z,1.80
2024-05-09T14:53:56.267Z,1.42
2024-05-09T14:56:58.409Z,1.52
2024-05-09T15:00:00.612Z,1.52
2024-05-09T15:03:03.190Z,1.50
2024-05-09T15:06:05.773Z,1.40
2024-05-09T15:09:08.304Z,1.55
2024-05-09T15:12:10.463Z,1.40
2024-05-09T15:15:12.788Z,1.40
2024-05-09T15:18:15.107Z,1.57
2024-05-09T15:21:18.216Z,1.70
2024-05-09T15:24:20.525Z,1.50
2024-05-09T15:27:22.756Z,1.73
2024-05-09T15:30:30.244Z,1.40
2024-05-09T15:33:35.041Z,1.60
2024-05-09T15:36:38.733Z,1.47
2024-05-09T15:39:42.064Z,1.52
2024-05-09T15:42:44.264Z,1.48
2024-05-09T15:45:46.607Z,1.48
2024-05-09T15:48:48.966Z,1.50
2024-05-09T15:51:51.249Z,1.93
2024-05-09T15:54:54.007Z,1.63
2024-05-09T15:57:56.242Z,1.67
2024-05-09T16:00:58.529Z,2.33
2024-05-09T16:04:01.434Z,1.60
2024-05-09T16:07:03.906Z,1.50
2024-05-09T16:10:07.053Z,1.50
2024-05-09T16:13:09.474Z,1.73
2024-05-09T16:16:11.908Z,1.58
2024-05-09T16:19:14.240Z,1.57
2024-05-09T16:22:16.508Z,1.67
2024-05-09T16:25:18.953Z,1.63
2024-05-09T16:28:23.860Z,1.88
2024-05-09T16:31:27.002Z,1.75
2024-05-09T16:34:31.697Z,1.57
2024-05-09T16:37:33.963Z,1.80
2024-05-09T16:40:39.872Z,1.83
2024-05-09T16:43:43.441Z,1.70
2024-05-09T16:46:45.694Z,1.50
2024-05-09T16:49:47.887Z,1.67
2024-05-09T16:52:50.036Z,1.70
2024-05-09T16:55:52.296Z,1.70
2024-05-09T16:58:55.190Z,1.63
2024-05-09T17:01:57.569Z,1.70
2024-05-09T17:04:59.907Z,1.97
2024-05-09T17:08:02.206Z,1.90
2024-05-09T17:11:04.818Z,2.20
2024-05-09T17:14:07.416Z,1.80
2024-05-09T17:17:12.360Z,2.15
2024-05-09T17:20:25.602Z,2.50
2024-05-09T17:23:35.173Z,2.07
2024-05-09T17:26:37.395Z,2.00
2024-05-09T17:29:39.671Z,1.65
2024-05-09T17:32:42.135Z,1.65
2024-05-09T17:35:46.127Z,1.63
2024-05-09T17:38:48.440Z,1.90
2024-05-09T17:41:50.587Z,1.92
2024-05-09T17:44:52.792Z,2.33
2024-05-09T17:47:55.310Z,2.00
2024-05-09T17:50:57.773Z,2.03
2024-05-09T17:53:59.910Z,2.20
2024-05-09T17:57:02.241Z,2.00
2024-05-09T18:00:07.033Z,2.10
2024-05-09T18:03:16.366Z,2.22
2024-05-09T18:06:18.541Z,2.63
2024-05-09T18:09:21.078Z,2.43
2024-05-09T18:12:23.203Z,2.55
2024-05-09T18:15:25.325Z,2.03
2024-05-09T18:18:27.575Z,1.75
2024-05-09T18:21:29.872Z,2.10
2024-05-09T18:24:32.079Z,1.93
2024-05-09T18:27:34.414Z,2.30
2024-05-09T18:30:37.520Z,2.22
2024-05-09T18:33:40.239Z,1.95
2024-05-09T18:36:42.686Z,1.93
2024-05-09T18:39:44.902Z,2.50
2024-05-09T18:42:47.143Z,2.20
2024-05-09T18:45:49.382Z,1.88
2024-05-09T18:48:51.815Z,2.20
2024-05-09T18:51:54.147Z,3.73
2024-05-09T18:54:56.384Z,6.57
2024-05-09T18:57:58.656Z,4.55
2024-05-09T19:01:02.050Z,4.63
2024-05-09T19:04:04.638Z,3.40
2024-05-09T19:07:07.037Z,2.57
2024-05-09T19:10:21.595Z,2.73
2024-05-09T19:13:25.375Z,2.67
2024-05-09T19:16:27.747Z,2.83
2024-05-09T19:19:30.140Z,2.53
2024-05-09T19:22:32.466Z,2.30
2024-05-09T19:25:35.049Z,2.10
2024-05-09T19:28:37.429Z,2.60
2024-05-09T19:31:39.602Z,2.53
2024-05-09T19:34:41.723Z,2.22
2024-05-09T19:37:44.008Z,2.40
2024-05-09T19:40:46.252Z,2.10
2024-05-09T19:43:48.475Z,3.03
2024-05-09T19:46:50.683Z,2.60
2024-05-09T19:49:52.909Z,2.30
2024-05-09T19:52:55.079Z,2.60
2024-05-09T19:55:58.789Z,2.27
2024-05-09T19:59:00.932Z,2.40
2024-05-09T20:02:03.276Z,2.10
2024-05-09T20:05:05.808Z,2.33
2024-05-09T20:08:08.040Z,2.40
2024-05-09T20:11:10.382Z,2.93
2024-05-09T20:14:12.630Z,2.35
2024-05-09T20:17:14.781Z,2.70
2024-05-09T20:20:27.419Z,2.50
2024-05-09T20:23:35.626Z,2.17
2024-05-09T20:26:37.908Z,2.37
2024-05-09T20:29:40.089Z,2.50
2024-05-09T20:32:42.401Z,2.58
2024-05-09T20:35:44.585Z,2.08
2024-05-09T20:38:46.814Z,2.23
2024-05-09T20:41:48.955Z,2.10
2024-05-09T20:44:51.332Z,2.00
2024-05-09T20:47:53.605Z,2.00
2024-05-09T20:50:55.942Z,2.40
2024-05-09T20:53:58.111Z,2.50
2024-05-09T20:57:00.314Z,2.37
2024-05-09T21:00:03.288Z,2.40
2024-05-09T21:03:06.624Z,2.30
2024-05-09T21:06:09.346Z,2.40
2024-05-09T21:09:11.475Z,2.60
2024-05-09T21:12:13.650Z,2.73
2024-05-09T21:15:15.826Z,2.70
2024-05-09T21:18:18.019Z,2.38
2024-05-09T21:21:20.177Z,2.60
2024-05-09T21:24:22.352Z,2.60
2024-05-09T21:27:24.733Z,3.27
2024-05-09T21:30:33.098Z,2.92
2024-05-09T21:33:43.171Z,2.70
2024-05-09T21:36:45.457Z,2.80
2024-05-09T21:39:47.942Z,2.90
2024-05-09T21:42:50.173Z,2.77
2024-05-09T21:45:52.383Z,3.50
2024-05-09T21:48:55.205Z,3.30
2024-05-09T21:51:57.489Z,3.10
2024-05-09T21:54:59.823Z,3.40
2024-05-09T21:58:02.735Z,3.40
2024-05-09T22:01:06.088Z,2.90
2024-05-09T22:04:08.398Z,3.00
2024-05-09T22:07:10.722Z,2.83
2024-05-09T22:10:20.042Z,3.20
2024-05-09T22:13:28.938Z,2.77
2024-05-09T22:16:31.275Z,3.40
2024-05-09T22:19:33.476Z,3.33
2024-05-09T22:22:35.672Z,3.15
2024-05-09T22:25:39.175Z,3.47
2024-05-09T22:28:41.384Z,3.43
2024-05-09T22:31:43.555Z,3.28
2024-05-09T22:34:45.779Z,2.92
2024-05-09T22:37:47.978Z,2.92
2024-05-09T22:40:50.299Z,3.00
2024-05-09T22:43:52.494Z,3.33
2024-05-09T22:46:54.665Z,3.42
2024-05-09T22:49:56.944Z,3.00
2024-05-09T22:52:59.160Z,2.42
2024-05-09T22:56:01.502Z,2.60
2024-05-09T22:59:03.740Z,2.67
2024-05-09T23:02:06.122Z,2.67
2024-05-09T23:05:08.514Z,2.53
2024-05-09T23:08:10.790Z,2.78
2024-05-09T23:11:13.069Z,2.90
2024-05-09T23:14:15.446Z,3.20
2024-05-09T23:17:17.612Z,2.90
2024-05-09T23:20:29.879Z,2.95
2024-05-09T23:23:38.890Z,2.80
2024-05-09T23:26:43.961Z,3.40
2024-05-09T23:29:47.171Z,3.13
2024-05-09T23:32:49.441Z,3.22
2024-05-09T23:35:51.616Z,2.83
2024-05-09T23:38:53.770Z,2.45
2024-05-09T23:41:56.123Z,2.60
2024-05-09T23:44:58.486Z,2.60
2024-05-09T23:48:01.057Z,2.63
2024-05-09T23:51:03.667Z,2.60
2024-05-09T23:54:07.942Z,2.78
2024-05-09T23:57:10.095Z,2.20
